Time;durP1;ratioP1;P1;durP2;ratioP2;P2;SDS_P1;SDS_P2;PMS_P1;PMS_P2;Temp;Humidity;BMP_temperature;BMP_pressure;BME280_temperature;BME280_humidity;BME280_pressure;Samples;Min_cycle;Max_cycle;Signal;HPM_P1;HPM_P2
2022/03/27 00:02:24;;;;;;;9.40;3.58;;;9.40;72.30;;;;;;6279185;22;20018;-88
2022/03/27 00:04:50;;;;;;;12.77;4.30;;;9.40;72.10;;;;;;6280343;22;20055;-88
2022/03/27 00:07:15;;;;;;;8.77;3.67;;;9.40;72.00;;;;;;6278641;22;20089;-87
2022/03/27 00:09:41;;;;;;;9.65;4.95;;;9.30;72.00;;;;;;6306440;22;20433;-87
2022/03/27 00:12:08;;;;;;;8.80;3.92;;;9.40;72.10;;;;;;6278732;22;19999;-87
2022/03/27 00:14:34;;;;;;;14.65;4.13;;;9.40;72.10;;;;;;6305107;22;20005;-88
2022/03/27 00:17:00;;;;;;;11.05;3.75;;;9.50;71.90;;;;;;6278863;22;20369;-88
2022/03/27 00:19:25;;;;;;;11.07;4.15;;;9.50;71.90;;;;;;6306237;22;20014;-88
2022/03/27 00:21:51;;;;;;;9.13;3.72;;;9.50;71.60;;;;;;6278977;22;20007;-87
2022/03/27 00:24:17;;;;;;;9.43;3.75;;;9.50;71.40;;;;;;6278604;22;20442;-88
2022/03/27 00:26:42;;;;;;;11.73;4.13;;;9.60;71.20;;;;;;6278761;22;20007;-88
2022/03/27 00:29:10;;;;;;;8.40;3.55;;;9.60;71.10;;;;;;6279331;22;20007;-88
2022/03/27 00:31:38;;;;;;;9.00;3.75;;;9.60;71.50;;;;;;6306879;22;19995;-87
2022/03/27 00:34:05;;;;;;;9.98;4.25;;;9.50;71.70;;;;;;6278338;22;20045;-88
2022/03/27 00:36:31;;;;;;;8.65;3.88;;;9.50;71.50;;;;;;6297622;22;20029;-87
2022/03/27 00:38:56;;;;;;;9.18;4.05;;;9.60;71.50;;;;;;6309565;22;20101;-87
2022/03/27 00:41:24;;;;;;;10.50;3.90;;;9.60;71.30;;;;;;6336448;22;20061;-88
2022/03/27 00:43:50;;;;;;;13.95;3.80;;;9.60;71.30;;;;;;6308399;22;20002;-88
2022/03/27 00:46:16;;;;;;;10.52;4.40;;;9.60;71.10;;;;;;6288195;22;20456;-87
2022/03/27 00:48:42;;;;;;;10.52;3.72;;;9.70;71.20;;;;;;6278320;22;20434;-86
2022/03/27 00:51:08;;;;;;;8.98;3.97;;;9.70;71.20;;;;;;6278759;22;20085;-88
2022/03/27 00:53:34;;;;;;;7.75;2.97;;;9.70;71.20;;;;;;6277734;22;20056;-88
2022/03/27 00:55:59;;;;;;;11.02;3.95;;;9.90;70.90;;;;;;6273799;22;20033;-89
2022/03/27 00:58:25;;;;;;;7.35;3.55;;;9.90;70.80;;;;;;6308202;22;20003;-87
2022/03/27 01:01:11;;;;;;;9.65;3.72;;;9.80;70.80;;;;;;6282703;22;20504;-84
2022/03/27 01:03:37;;;;;;;8.57;4.13;;;9.90;70.70;;;;;;6306066;22;20007;-84
2022/03/27 01:06:03;;;;;;;15.10;4.00;;;9.90;70.30;;;;;;6280995;22;20003;-84
2022/03/27 01:11:18;;;;;;;10.60;4.00;;;9.80;70.30;;;;;;6305893;22;20018;-84
2022/03/27 01:13:56;;;;;;;13.25;4.18;;;9.90;70.40;;;;;;6277464;22;20003;-84
2022/03/27 01:16:45;;;;;;;9.18;3.83;;;9.80;70.40;;;;;;6277160;22;20023;-84
2022/03/27 01:19:14;;;;;;;8.75;3.90;;;9.70;70.70;;;;;;6276895;22;20006;-84
2022/03/27 01:21:42;;;;;;;9.80;3.42;;;9.70;70.90;;;;;;6276962;22;20007;-84
2022/03/27 01:24:09;;;;;;;12.70;3.90;;;9.60;71.20;;;;;;6304678;22;20070;-84
2022/03/27 01:26:36;;;;;;;11.20;4.57;;;9.60;71.40;;;;;;6276706;22;20014;-84
2022/03/27 01:29:03;;;;;;;10.00;4.00;;;9.50;71.60;;;;;;6276794;22;20213;-84
2022/03/27 01:31:28;;;;;;;8.63;3.33;;;9.50;71.60;;;;;;6304209;22;19991;-84
2022/03/27 01:33:54;;;;;;;10.70;3.67;;;9.40;71.40;;;;;;6276443;22;20003;-84
2022/03/27 01:36:25;;;;;;;12.25;4.80;;;9.40;71.60;;;;;;6303730;22;20007;-84
2022/03/27 01:38:52;;;;;;;9.00;3.30;;;9.30;71.80;;;;;;6276975;22;20076;-84
2022/03/27 01:41:18;;;;;;;11.68;3.30;;;9.30;71.90;;;;;;6304390;22;20064;-83
2022/03/27 01:43:44;;;;;;;9.00;3.65;;;9.20;72.00;;;;;;6275827;22;20014;-83
2022/03/27 01:46:10;;;;;;;8.50;4.05;;;9.10;72.40;;;;;;6275857;22;20003;-83
2022/03/27 01:48:35;;;;;;;10.73;4.07;;;9.10;73.30;;;;;;6277228;22;20030;-84
2022/03/27 01:51:01;;;;;;;12.43;4.65;;;9.00;73.20;;;;;;6276721;22;20015;-84
2022/03/27 01:53:27;;;;;;;9.07;3.90;;;9.00;73.60;;;;;;6276105;22;20030;-83
2022/03/27 01:55:53;;;;;;;10.02;3.92;;;8.90;74.10;;;;;;6303949;22;20192;-83
2022/03/27 01:58:18;;;;;;;8.52;3.47;;;8.90;74.60;;;;;;6303686;22;19999;-83
2022/03/27 02:00:44;;;;;;;10.95;4.22;;;8.80;74.80;;;;;;6299617;22;20497;-83
2022/03/27 02:03:10;;;;;;;11.70;4.35;;;8.80;75.00;;;;;;6276217;22;20007;-83
2022/03/27 02:05:36;;;;;;;10.77;3.80;;;8.70;75.20;;;;;;6276291;22;20486;-84
2022/03/27 02:08:02;;;;;;;9.20;3.55;;;8.70;75.20;;;;;;6276216;22;20011;-82
2022/03/27 02:10:27;;;;;;;8.98;3.55;;;8.60;75.30;;;;;;6303840;22;20019;-84
2022/03/27 02:12:53;;;;;;;10.05;4.28;;;8.60;75.20;;;;;;6303777;22;20035;-83
2022/03/27 02:15:19;;;;;;;13.13;4.03;;;8.60;75.40;;;;;;6276465;22;20382;-83
2022/03/27 02:17:45;;;;;;;12.38;4.07;;;8.60;75.70;;;;;;6276299;22;19999;-83
2022/03/27 02:20:11;;;;;;;14.60;4.35;;;8.60;75.80;;;;;;6303331;22;20057;-84
2022/03/27 02:22:37;;;;;;;8.38;3.25;;;8.50;75.20;;;;;;6276367;22;20010;-83
2022/03/27 02:25:04;;;;;;;9.75;4.35;;;8.50;75.80;;;;;;6275462;22;20440;-83
2022/03/27 02:27:30;;;;;;;10.88;4.03;;;8.50;76.20;;;;;;6276492;22;20003;-83
2022/03/27 02:29:55;;;;;;;12.30;4.65;;;8.40;76.50;;;;;;6303802;22;19998;-83
2022/03/27 02:32:21;;;;;;;9.27;3.75;;;8.40;76.50;;;;;;6303898;22;20035;-83
2022/03/27 02:34:46;;;;;;;8.63;3.97;;;8.40;76.70;;;;;;6305800;22;19999;-84
2022/03/27 02:37:13;;;;;;;9.25;4.00;;;8.30;76.80;;;;;;6282029;22;20105;-83
2022/03/27 02:39:39;;;;;;;11.52;4.25;;;8.30;77.00;;;;;;6307742;22;20333;-83
2022/03/27 02:42:05;;;;;;;8.70;3.55;;;8.30;77.20;;;;;;6277588;22;20447;-83
2022/03/27 02:44:31;;;;;;;10.52;3.70;;;8.30;77.70;;;;;;6275444;22;20007;-83
2022/03/27 02:46:57;;;;;;;10.43;3.67;;;8.30;77.50;;;;;;6276986;22;20046;-83
2022/03/27 02:49:23;;;;;;;9.23;4.32;;;8.20;77.50;;;;;;6279418;22;20078;-83
2022/03/27 02:51:48;;;;;;;8.68;3.55;;;8.10;77.60;;;;;;6278051;22;20000;-83
2022/03/27 02:54:15;;;;;;;9.77;3.85;;;8.10;77.70;;;;;;6303460;22;20004;-83
2022/03/27 02:56:40;;;;;;;12.30;4.40;;;8.00;77.60;;;;;;6276050;22;20003;-85
2022/03/27 02:59:06;;;;;;;9.93;3.80;;;8.00;77.60;;;;;;6272081;22;20065;-84
2022/03/27 03:01:32;;;;;;;12.18;4.07;;;8.00;77.90;;;;;;6277156;22;20033;-84
2022/03/27 03:03:58;;;;;;;10.13;3.63;;;7.90;78.10;;;;;;6276145;22;20007;-83
2022/03/27 03:06:24;;;;;;;14.48;4.25;;;7.90;78.20;;;;;;6275693;22;20004;-84
2022/03/27 03:08:50;;;;;;;11.13;3.67;;;7.90;78.40;;;;;;6303682;22;20021;-83
2022/03/27 03:11:16;;;;;;;10.60;4.18;;;7.90;78.80;;;;;;6276233;22;20004;-84
2022/03/27 03:13:44;;;;;;;9.32;3.55;;;7.80;78.60;;;;;;6303434;22;20418;-84
2022/03/27 03:16:10;;;;;;;8.75;3.75;;;7.90;78.40;;;;;;6304670;22;20010;-84
2022/03/27 03:18:36;;;;;;;9.30;3.53;;;7.80;78.80;;;;;;6278652;22;20090;-84
2022/03/27 03:21:03;;;;;;;12.00;4.45;;;7.70;79.00;;;;;;6278999;22;20007;-84
2022/03/27 03:23:29;;;;;;;9.65;3.50;;;7.70;79.10;;;;;;6278518;22;20031;-84
2022/03/27 03:25:55;;;;;;;10.48;4.25;;;7.70;79.30;;;;;;6307564;22;20014;-84
2022/03/27 03:28:21;;;;;;;11.52;4.30;;;7.70;79.20;;;;;;6307335;22;20074;-84
2022/03/27 03:30:47;;;;;;;10.88;4.25;;;7.70;79.50;;;;;;6306678;22;20003;-84
2022/03/27 03:33:12;;;;;;;15.32;4.63;;;7.70;79.70;;;;;;6278118;22;20459;-84
2022/03/27 03:35:39;;;;;;;9.55;4.03;;;7.70;80.00;;;;;;6277210;22;20096;-84
2022/03/27 03:38:05;;;;;;;15.23;4.20;;;7.70;79.70;;;;;;6305743;22;20336;-84
2022/03/27 03:40:31;;;;;;;10.13;4.38;;;7.70;79.70;;;;;;6278216;22;19995;-84
2022/03/27 03:42:57;;;;;;;10.68;4.45;;;7.70;80.00;;;;;;6277753;22;20086;-84
2022/03/27 03:45:23;;;;;;;8.48;3.58;;;7.70;80.50;;;;;;6276488;22;20113;-84
2022/03/27 03:47:49;;;;;;;10.65;4.47;;;7.70;80.40;;;;;;6305161;22;20004;-84
2022/03/27 03:50:14;;;;;;;13.43;4.10;;;7.60;80.70;;;;;;6305144;22;20019;-84
2022/03/27 03:52:40;;;;;;;12.00;4.10;;;7.60;81.50;;;;;;6277245;22;20003;-85
2022/03/27 03:55:06;;;;;;;10.10;4.15;;;7.60;81.20;;;;;;6276963;22;20036;-84
2022/03/27 03:57:32;;;;;;;9.43;4.25;;;7.50;81.40;;;;;;6304621;22;20094;-84
2022/03/27 03:59:58;;;;;;;8.70;3.40;;;7.50;81.70;;;;;;6272139;22;20034;-84
2022/03/27 04:02:24;;;;;;;7.38;3.15;;;7.50;81.90;;;;;;6277093;22;20010;-84
2022/03/27 04:04:50;;;;;;;9.30;4.05;;;7.50;81.90;;;;;;6276776;22;20329;-84
2022/03/27 04:07:15;;;;;;;10.23;4.38;;;7.40;82.10;;;;;;6304246;22;20034;-85
2022/03/27 04:09:41;;;;;;;12.88;3.63;;;7.40;82.40;;;;;;6304429;22;20049;-84
2022/03/27 04:12:07;;;;;;;10.32;3.63;;;7.30;82.30;;;;;;6277752;22;20003;-84
2022/03/27 04:14:36;;;;;;;9.98;3.80;;;7.20;82.80;;;;;;6277288;22;20007;-84
2022/03/27 04:17:04;;;;;;;14.38;4.38;;;7.10;83.60;;;;;;6304515;22;20009;-84
2022/03/27 04:19:30;;;;;;;10.07;3.92;;;7.10;83.70;;;;;;6277771;22;20011;-84
2022/03/27 04:21:57;;;;;;;10.32;4.50;;;7.00;83.60;;;;;;6277450;22;20495;-84
2022/03/27 04:24:23;;;;;;;8.05;3.60;;;7.00;84.00;;;;;;6276965;22;20011;-84
2022/03/27 04:26:48;;;;;;;11.55;3.50;;;7.00;84.50;;;;;;6276552;22;20053;-84
2022/03/27 04:29:14;;;;;;;12.73;4.07;;;7.10;84.40;;;;;;6277074;22;19999;-84
2022/03/27 04:31:41;;;;;;;13.80;3.65;;;7.10;84.30;;;;;;6304496;22;20000;-84
2022/03/27 04:34:07;;;;;;;12.68;4.38;;;7.10;84.10;;;;;;6276451;22;20011;-84
2022/03/27 04:36:32;;;;;;;11.48;3.75;;;7.10;84.60;;;;;;6277016;22;20019;-84
2022/03/27 04:38:58;;;;;;;9.13;3.70;;;7.10;84.40;;;;;;6302341;22;20038;-84
2022/03/27 04:41:24;;;;;;;8.93;3.60;;;7.20;84.60;;;;;;6276798;22;20052;-83
2022/03/27 04:43:50;;;;;;;11.20;3.65;;;7.10;84.70;;;;;;6303942;22;20069;-84
2022/03/27 04:46:16;;;;;;;14.95;3.95;;;7.10;85.20;;;;;;6276683;22;20511;-84
2022/03/27 04:48:43;;;;;;;11.68;4.32;;;7.20;85.60;;;;;;6275952;22;20033;-84
2022/03/27 04:51:09;;;;;;;9.68;3.80;;;7.10;85.60;;;;;;6304278;22;20448;-84
2022/03/27 04:53:35;;;;;;;8.40;3.88;;;7.10;85.60;;;;;;6303221;22;19996;-85
2022/03/27 04:56:00;;;;;;;10.70;3.63;;;7.00;85.80;;;;;;6276151;22;19999;-84
2022/03/27 04:58:26;;;;;;;9.43;3.30;;;7.00;86.00;;;;;;6299485;22;20006;-84
2022/03/27 05:00:51;;;;;;;13.30;3.67;;;7.00;86.50;;;;;;6276819;22;20082;-84
2022/03/27 05:03:17;;;;;;;9.27;3.90;;;7.00;87.00;;;;;;6275982;22;20125;-85
2022/03/27 05:05:43;;;;;;;8.68;3.53;;;7.00;87.10;;;;;;6276232;22;20003;-84
2022/03/27 05:08:09;;;;;;;10.95;3.63;;;7.00;87.10;;;;;;6276189;22;20011;-84
2022/03/27 05:10:35;;;;;;;9.43;3.13;;;7.00;87.20;;;;;;6276710;22;20000;-84
2022/03/27 05:13:01;;;;;;;16.38;4.10;;;7.00;87.60;;;;;;6276548;22;19999;-84
2022/03/27 05:15:27;;;;;;;10.60;3.58;;;6.90;88.10;;;;;;6303265;22;19991;-84
2022/03/27 05:17:58;;;;;;;10.82;4.07;;;6.90;87.90;;;;;;6303686;22;19999;-83
2022/03/27 05:20:28;;;;;;;11.10;4.80;;;6.90;88.00;;;;;;6277457;22;20007;-83
2022/03/27 05:22:55;;;;;;;10.65;3.95;;;6.90;88.20;;;;;;6275886;22;20114;-84
2022/03/27 05:25:21;;;;;;;8.82;3.30;;;6.80;88.70;;;;;;6275809;22;20003;-84
2022/03/27 05:27:54;;;;;;;11.45;3.42;;;6.90;88.50;;;;;;6303706;22;20008;-84
2022/03/27 05:30:22;;;;;;;10.73;4.25;;;6.80;88.60;;;;;;6303879;22;20143;-84
2022/03/27 05:32:48;;;;;;;14.13;4.50;;;6.80;88.70;;;;;;6275918;22;20010;-83
2022/03/27 05:35:14;;;;;;;10.23;3.92;;;6.80;88.60;;;;;;6275566;22;20087;-83
2022/03/27 05:37:41;;;;;;;13.48;3.65;;;6.70;89.50;;;;;;6276163;22;20031;-84
2022/03/27 05:40:09;;;;;;;7.53;3.33;;;6.80;89.20;;;;;;6276229;22;20003;-83
2022/03/27 05:42:35;;;;;;;12.43;4.30;;;6.80;89.20;;;;;;6303205;22;20031;-84
2022/03/27 05:45:03;;;;;;;13.18;5.10;;;6.90;89.30;;;;;;6275571;22;20082;-83
2022/03/27 05:47:29;;;;;;;11.52;4.00;;;6.90;89.50;;;;;;6303762;22;19999;-83
2022/03/27 05:49:54;;;;;;;10.07;3.60;;;6.90;89.70;;;;;;6276265;22;20003;-83
2022/03/27 05:52:21;;;;;;;8.55;3.10;;;6.80;89.70;;;;;;6276154;22;20007;-83
2022/03/27 05:54:47;;;;;;;14.95;4.72;;;6.80;89.50;;;;;;6275969;22;20033;-83
2022/03/27 05:57:14;;;;;;;11.77;4.25;;;6.80;89.80;;;;;;6303444;22;20003;-83
2022/03/27 05:59:40;;;;;;;10.02;4.43;;;7.00;89.80;;;;;;6271518;22;20014;-83
2022/03/27 06:02:06;;;;;;;8.27;4.35;;;6.90;89.70;;;;;;6276198;22;20007;-83
2022/03/27 06:04:31;;;;;;;11.77;3.85;;;7.00;89.60;;;;;;6303132;22;20042;-84
2022/03/27 06:06:57;;;;;;;9.32;3.65;;;7.10;89.50;;;;;;6275562;22;20113;-84
2022/03/27 06:09:22;;;;;;;9.65;4.15;;;7.10;89.40;;;;;;6275875;22;20007;-84
2022/03/27 06:11:49;;;;;;;9.40;3.78;;;7.20;89.10;;;;;;6303336;22;19995;-83
2022/03/27 06:14:14;;;;;;;11.52;4.07;;;7.30;88.60;;;;;;6302780;22;20004;-83
2022/03/27 06:16:40;;;;;;;12.77;4.18;;;7.40;88.50;;;;;;6275076;22;20042;-84
2022/03/27 06:19:06;;;;;;;9.95;4.45;;;7.50;88.30;;;;;;6302454;22;19999;-83
2022/03/27 06:21:31;;;;;;;12.32;4.53;;;7.60;87.80;;;;;;6275425;22;20077;-84
2022/03/27 06:23:57;;;;;;;15.43;4.43;;;7.70;87.20;;;;;;6301965;22;20003;-84
2022/03/27 06:26:23;;;;;;;15.25;4.18;;;7.80;87.50;;;;;;6302137;22;20003;-83
2022/03/27 06:28:49;;;;;;;9.70;3.90;;;7.90;86.50;;;;;;6302712;22;20434;-84
2022/03/27 06:31:15;;;;;;;12.95;3.83;;;8.00;86.10;;;;;;6275601;22;20086;-84
2022/03/27 06:33:41;;;;;;;11.55;4.07;;;8.10;85.30;;;;;;6275497;22;20004;-84
2022/03/27 06:36:06;;;;;;;11.38;4.10;;;8.20;85.00;;;;;;6303198;22;20365;-84
2022/03/27 06:38:32;;;;;;;9.13;4.20;;;8.30;84.50;;;;;;6276152;22;20334;-84
2022/03/27 06:40:57;;;;;;;9.85;4.18;;;8.40;84.90;;;;;;6279163;22;20042;-84
2022/03/27 06:43:23;;;;;;;10.80;5.03;;;8.50;85.50;;;;;;6304752;22;20323;-84
2022/03/27 06:45:50;;;;;;;8.50;4.07;;;8.60;85.70;;;;;;6304047;22;20018;-84
2022/03/27 06:48:16;;;;;;;13.50;4.20;;;8.80;85.30;;;;;;6303085;22;20029;-84
2022/03/27 06:50:44;;;;;;;11.20;4.10;;;8.90;85.00;;;;;;6302639;22;20003;-83
2022/03/27 06:53:11;;;;;;;9.27;3.60;;;8.90;84.60;;;;;;6303163;22;20418;-84
2022/03/27 06:55:37;;;;;;;8.88;3.72;;;9.10;84.80;;;;;;6274653;22;20275;-84
2022/03/27 06:58:03;;;;;;;8.20;3.60;;;9.10;84.40;;;;;;6272963;22;20008;-84
2022/03/27 07:03:39;;;;;;;10.43;3.83;;;9.30;84.80;;;;;;6365930;22;20009;-88
2022/03/27 07:09:19;;;;;;;11.15;3.72;;;9.50;83.80;;;;;;6359791;22;19998;-88
2022/03/27 07:11:52;;;;;;;10.10;4.15;;;9.70;83.00;;;;;;6307687;22;20007;-88
2022/03/27 07:14:47;;;;;;;10.45;4.20;;;9.80;82.50;;;;;;6304630;22;20095;-88
2022/03/27 07:17:25;;;;;;;17.20;4.38;;;9.90;82.30;;;;;;6306533;22;20006;-87
2022/03/27 07:20:18;;;;;;;10.75;3.85;;;10.00;81.40;;;;;;6335057;22;20010;-88
2022/03/27 07:23:14;;;;;;;8.35;3.88;;;10.10;81.10;;;;;;6305090;22;20003;-87
2022/03/27 07:26:01;;;;;;;9.35;4.10;;;10.30;81.30;;;;;;6307742;22;20474;-88
2022/03/27 07:28:45;;;;;;;9.65;4.25;;;10.40;80.70;;;;;;6307288;22;20007;-87
2022/03/27 07:31:35;;;;;;;11.13;4.18;;;10.50;80.20;;;;;;6329803;22;20021;-88
2022/03/27 07:34:13;;;;;;;11.15;4.80;;;10.60;80.20;;;;;;6303429;22;20610;-88
2022/03/27 07:36:55;;;;;;;9.70;4.25;;;10.70;79.50;;;;;;6302885;22;20053;-87
2022/03/27 07:39:23;;;;;;;8.07;3.85;;;10.80;79.60;;;;;;6306539;22;20061;-87
2022/03/27 07:41:55;;;;;;;8.95;3.50;;;10.90;79.90;;;;;;6334063;22;20021;-87
2022/03/27 07:44:20;;;;;;;10.73;4.50;;;11.10;79.90;;;;;;6306771;22;20097;-88
2022/03/27 07:46:48;;;;;;;8.77;3.70;;;11.30;79.50;;;;;;6307992;22;20413;-87
2022/03/27 07:49:17;;;;;;;8.23;4.15;;;11.40;79.50;;;;;;6335347;22;20046;-89
2022/03/27 07:52:11;;;;;;;8.10;3.78;;;11.50;79.50;;;;;;6302471;22;20006;-87
2022/03/27 07:54:47;;;;;;;9.70;3.90;;;11.60;79.10;;;;;;6308449;22;19998;-88
2022/03/27 07:57:26;;;;;;;8.68;3.60;;;11.80;78.10;;;;;;6308615;22;20002;-87
2022/03/27 08:00:02;;;;;;;10.65;4.20;;;11.80;77.50;;;;;;6334733;22;20002;-88
2022/03/27 08:02:42;;;;;;;9.25;3.88;;;11.90;77.10;;;;;;6309273;22;20101;-89
2022/03/27 08:05:24;;;;;;;11.85;3.75;;;12.00;77.00;;;;;;6309128;22;19999;-88
2022/03/27 08:08:26;;;;;;;15.38;3.92;;;12.10;76.00;;;;;;6309740;22;20388;-88
2022/03/27 08:11:07;;;;;;;8.60;4.40;;;12.20;75.90;;;;;;6307294;22;20433;-87
2022/03/27 08:13:55;;;;;;;8.75;3.47;;;12.20;74.70;;;;;;6309728;22;20055;-88
2022/03/27 08:16:27;;;;;;;16.05;5.38;;;12.20;74.90;;;;;;6309587;22;20014;-89
2022/03/27 08:19:17;;;;;;;12.73;4.82;;;12.20;75.10;;;;;;6335620;22;20002;-87
2022/03/27 08:21:53;;;;;;;10.57;4.15;;;12.20;75.20;;;;;;6335052;22;20023;-87
2022/03/27 08:24:28;;;;;;;7.78;3.60;;;12.30;75.10;;;;;;6304381;22;20064;-86
2022/03/27 08:27:20;;;;;;;9.43;3.97;;;12.40;74.70;;;;;;6308576;22;20109;-87
2022/03/27 08:30:14;;;;;;;8.03;3.47;;;12.50;75.60;;;;;;6307843;22;20010;-88
2022/03/27 08:32:51;;;;;;;10.13;3.58;;;12.60;74.40;;;;;;6309020;22;19999;-87
2022/03/27 08:35:22;;;;;;;10.10;4.05;;;12.80;74.40;;;;;;6335865;22;20017;-88
2022/03/27 08:37:59;;;;;;;8.93;3.97;;;13.00;74.30;;;;;;6306102;22;20336;-88
2022/03/27 08:40:27;;;;;;;9.07;4.05;;;13.20;72.70;;;;;;6307493;22;19999;-87
2022/03/27 08:43:01;;;;;;;9.40;3.75;;;13.20;72.40;;;;;;6308033;22;20029;-87
2022/03/27 08:49:03;;;;;;;;;;;;;;;;;;;;;
2022/03/27 08:52:11;;;;;;;9.93;4.15;;;13.60;71.90;;;;;;6331186;22;20090;-88
2022/03/27 08:55:14;;;;;;;8.68;3.85;;;13.60;70.80;;;;;;6309062;22;20023;-88
2022/03/27 08:58:10;;;;;;;8.38;3.75;;;13.80;70.20;;;;;;6308939;22;20007;-88
2022/03/27 09:01:00;;;;;;;8.80;3.67;;;14.00;70.70;;;;;;6304129;22;20007;-88
2022/03/27 09:03:43;;;;;;;9.82;3.80;;;14.10;70.00;;;;;;6309400;22;20500;-88
2022/03/27 09:06:36;;;;;;;10.27;4.80;;;14.20;69.90;;;;;;6304287;22;20134;-87
2022/03/27 09:09:24;;;;;;;8.75;3.90;;;14.30;70.10;;;;;;6308182;22;20082;-88
2022/03/27 09:12:06;;;;;;;9.20;4.10;;;14.20;69.60;;;;;;6309028;22;19999;-87
2022/03/27 09:18:48;;;;;;;8.32;3.70;;;14.50;69.60;;;;;;6179584;23;20408;-88
2022/03/27 09:28:28;;;;;;;8.43;4.05;;;14.80;69.40;;;;;;6336108;22;20060;-88
2022/03/27 09:30:48;;;;;;;8.45;4.18;;;15.00;69.20;;;;;;6328382;22;20001;-88
2022/03/27 09:33:46;;;;;;;8.52;4.45;;;15.10;68.80;;;;;;6303897;22;20009;-88
2022/03/27 09:36:39;;;;;;;7.82;3.97;;;15.30;68.30;;;;;;6337122;22;20330;-88
2022/03/27 09:39:16;;;;;;;10.60;4.15;;;15.50;68.50;;;;;;6308650;22;20390;-88
2022/03/27 09:42:07;;;;;;;8.07;4.10;;;15.40;68.50;;;;;;6309005;22;20650;-88
2022/03/27 09:44:57;;;;;;;;;;;;;;;;;;;;;
2022/03/27 09:47:25;;;;;;;7.25;3.40;;;15.70;68.60;;;;;;6336453;22;20404;-88
2022/03/27 09:53:24;;;;;;;9.73;4.28;;;15.90;67.30;;;;;;6365008;22;20018;-87
2022/03/27 09:56:31;;;;;;;9.40;4.00;;;16.10;66.20;;;;;;6339608;22;20003;-88
2022/03/27 10:26:15;;;;;;;10.05;4.43;;;17.40;63.30;;;;;;6366602;22;20029;-88
2022/03/27 10:47:59;;;;;;;;;;;;;;;;;;;;;
2022/03/27 10:51:11;;;;;;;9.48;3.78;;;18.30;61.20;;;;;;6188534;22;20084;-87
2022/03/27 11:00:51;;;;;;;9.95;4.05;;;18.80;60.40;;;;;;6208394;23;20084;-88
2022/03/27 11:14:46;;;;;;;8.88;4.22;;;19.60;58.20;;;;;;6156799;23;20021;-89
2022/03/27 11:35:29;;;;;;;8.43;4.35;;;19.60;57.50;;;;;;6188679;23;20039;-90
2022/03/27 11:39:01;;;;;;;7.85;3.28;;;19.80;56.60;;;;;;6202701;22;20066;-87
2022/03/27 11:42:07;;;;;;;8.05;4.25;;;20.10;55.70;;;;;;6181826;23;20521;-90
2022/03/27 11:45:07;;;;;;;8.38;3.35;;;20.30;55.40;;;;;;6154321;23;20388;-89
2022/03/27 11:48:17;;;;;;;7.97;3.58;;;20.50;54.70;;;;;;6156660;23;20415;-89
2022/03/27 11:51:13;;;;;;;9.77;3.58;;;20.60;54.20;;;;;;6198510;22;20011;-89
2022/03/27 11:53:54;;;;;;;9.15;3.88;;;20.60;54.70;;;;;;6337932;22;20003;-89
2022/03/27 11:58:11;;;;;;;;;;;;;;;;;;;;;
2022/03/27 12:08:17;;;;;;;;;;;;;;;;;;;;;
2022/03/27 12:15:08;;;;;;;8.07;3.42;;;21.00;51.20;;;;;;6373762;22;20112;-89
2022/03/27 12:36:16;;;;;;;;;;;;;;;;;;;;;
2022/03/27 12:52:57;;;;;;;7.25;3.00;;;22.00;46.90;;;;;;6301157;22;20025;-89
2022/03/27 13:01:34;;;;;;;6.43;3.03;;;22.60;44.80;;;;;;6316790;22;20016;-86
2022/03/27 13:04:07;;;;;;;8.57;3.42;;;22.50;44.90;;;;;;6290684;22;19991;-88
2022/03/27 13:07:12;;;;;;;7.03;2.83;;;22.60;46.50;;;;;;6291427;22;20038;-87
2022/03/27 13:09:52;;;;;;;7.45;3.15;;;22.50;45.70;;;;;;6183966;23;20014;-86
2022/03/27 13:12:18;;;;;;;8.27;3.22;;;22.90;46.50;;;;;;6165321;22;20013;-87
2022/03/27 13:14:47;;;;;;;8.30;3.97;;;23.00;45.60;;;;;;6290039;22;20015;-86
2022/03/27 13:17:16;;;;;;;6.57;3.17;;;22.90;45.40;;;;;;6261290;22;20010;-86
2022/03/27 13:19:43;;;;;;;8.85;3.45;;;22.90;46.50;;;;;;6260614;22;20033;-86
2022/03/27 13:22:10;;;;;;;7.45;3.13;;;22.60;46.10;;;;;;6288180;22;20004;-87
2022/03/27 13:24:39;;;;;;;7.20;3.63;;;22.70;46.20;;;;;;6260307;22;20011;-86
2022/03/27 13:27:08;;;;;;;10.20;4.07;;;23.00;46.40;;;;;;6257925;22;20087;-86
2022/03/27 13:29:36;;;;;;;6.88;2.95;;;23.30;45.70;;;;;;6291368;22;19996;-87
2022/03/27 13:32:08;;;;;;;6.68;3.13;;;23.50;45.40;;;;;;6264082;22;20064;-89
2022/03/27 13:34:35;;;;;;;8.55;3.30;;;23.70;44.40;;;;;;6294286;22;20015;-88
2022/03/27 13:37:03;;;;;;;7.10;2.67;;;23.90;44.20;;;;;;6268645;22;20012;-89
2022/03/27 13:39:33;;;;;;;8.93;2.83;;;23.90;43.20;;;;;;6297287;22;20003;-88
2022/03/27 13:43:09;;;;;;;;;;;;;;;;;;;;;
2022/03/27 13:46:26;;;;;;;;;;;;;;;;;;;;;
2022/03/27 14:33:25;;;;;;;5.35;2.30;;;25.00;40.90;;;;;;6343086;22;20014;-89
2022/03/27 14:35:59;;;;;;;7.55;2.80;;;25.10;41.00;;;;;;6354311;22;20006;-89
2022/03/27 14:38:29;;;;;;;9.93;3.13;;;25.10;40.30;;;;;;6354265;22;19995;-90
2022/03/27 14:40:55;;;;;;;6.63;2.70;;;25.10;40.20;;;;;;6328008;22;20026;-91
2022/03/27 14:43:36;;;;;;;6.75;3.20;;;25.50;40.50;;;;;;6326537;22;20018;-90
2022/03/27 14:46:03;;;;;;;6.93;3.03;;;25.60;40.50;;;;;;6352375;22;20025;-89
2022/03/27 14:48:29;;;;;;;6.63;3.08;;;25.50;40.10;;;;;;6353147;22;20085;-89
2022/03/27 14:50:55;;;;;;;8.15;2.67;;;25.10;40.20;;;;;;6328561;22;20002;-90
2022/03/27 14:53:31;;;;;;;5.10;2.42;;;25.40;40.10;;;;;;6354704;22;20085;-90
2022/03/27 14:56:01;;;;;;;6.47;3.03;;;25.40;40.20;;;;;;6353695;22;20006;-90
2022/03/27 14:58:34;;;;;;;8.10;2.67;;;25.30;41.00;;;;;;6355385;22;20002;-89
2022/03/27 15:01:06;;;;;;;6.35;2.28;;;25.30;40.20;;;;;;6381871;22;20040;-90
2022/03/27 15:03:40;;;;;;;5.68;2.92;;;25.50;40.40;;;;;;6383757;22;20013;-90
2022/03/27 15:09:34;;;;;;;6.28;2.78;;;25.60;39.20;;;;;;6375743;22;20018;-90
2022/03/27 15:12:20;;;;;;;6.90;2.88;;;25.60;39.30;;;;;;6324290;22;20021;-89
2022/03/27 15:14:52;;;;;;;5.68;2.78;;;25.80;39.20;;;;;;6323667;22;19999;-90
2022/03/27 15:17:51;;;;;;;7.68;2.70;;;25.80;39.40;;;;;;6353313;22;20032;-89
2022/03/27 15:27:38;;;;;;;6.95;2.80;;;25.70;39.10;;;;;;6199263;23;20043;-90
2022/03/27 15:30:11;;;;;;;6.38;3.28;;;26.00;39.30;;;;;;6198390;23;20024;-90
2022/03/27 15:32:40;;;;;;;4.50;2.15;;;25.50;39.60;;;;;;6323839;22;20029;-90
2022/03/27 15:35:10;;;;;;;5.78;2.63;;;25.50;40.00;;;;;;6355173;22;20010;-90
2022/03/27 15:37:47;;;;;;;6.15;3.03;;;25.40;39.70;;;;;;6327762;22;20014;-91
2022/03/27 15:40:23;;;;;;;5.65;2.88;;;25.10;39.30;;;;;;6325903;22;20094;-89
2022/03/27 15:43:06;;;;;;;5.25;2.67;;;25.10;39.80;;;;;;6356762;22;20027;-89
2022/03/27 15:45:44;;;;;;;4.80;2.30;;;25.20;39.60;;;;;;6324591;22;20322;-90
2022/03/27 15:51:22;;;;;;;4.88;2.25;;;24.90;39.40;;;;;;6347489;22;20018;-85
2022/03/27 15:53:59;;;;;;;5.82;2.38;;;24.50;39.50;;;;;;6354373;22;19998;-87
2022/03/27 15:56:29;;;;;;;5.95;2.92;;;24.30;39.60;;;;;;6351589;22;20325;-87
2022/03/27 16:01:43;;;;;;;5.15;2.40;;;24.30;39.70;;;;;;6369430;22;20022;-88
2022/03/27 16:04:33;;;;;;;5.18;2.60;;;24.30;39.80;;;;;;6355871;22;20005;-88
2022/03/27 16:07:15;;;;;;;4.35;2.22;;;24.00;40.30;;;;;;6354835;22;20066;-88
2022/03/27 16:09:43;;;;;;;7.13;2.47;;;23.60;40.40;;;;;;6343567;22;20002;-86
2022/03/27 16:12:09;;;;;;;11.25;3.05;;;22.90;41.10;;;;;;6323422;22;20081;-87
2022/03/27 16:15:11;;;;;;;9.02;2.38;;;22.00;41.90;;;;;;6317674;22;20006;-87
2022/03/27 16:17:43;;;;;;;8.15;3.08;;;21.40;42.60;;;;;;6319204;22;20589;-88
2022/03/27 16:20:22;;;;;;;4.90;2.28;;;20.90;43.30;;;;;;6350733;22;20018;-87
2022/03/27 16:22:56;;;;;;;7.55;3.30;;;19.90;43.70;;;;;;6350730;22;20031;-88
2022/03/27 16:25:36;;;;;;;6.00;2.33;;;20.20;44.40;;;;;;6381079;22;19994;-87
2022/03/27 16:28:08;;;;;;;4.18;2.17;;;19.90;45.00;;;;;;6353443;22;20066;-87
2022/03/27 16:30:37;;;;;;;6.95;2.30;;;19.70;45.50;;;;;;6331265;22;20034;-88
2022/03/27 16:33:04;;;;;;;5.65;2.65;;;19.60;45.50;;;;;;6322253;22;20006;-87
2022/03/27 16:35:30;;;;;;;6.53;2.40;;;19.50;45.90;;;;;;6349198;22;19998;-84
2022/03/27 16:38:12;;;;;;;6.15;3.20;;;19.40;46.40;;;;;;6352567;22;20014;-86
2022/03/27 16:41:04;;;;;;;8.02;2.60;;;19.40;46.30;;;;;;6350434;22;20002;-87
2022/03/27 16:44:21;;;;;;;6.82;2.53;;;19.30;46.20;;;;;;6344529;22;20002;-87
2022/03/27 16:46:50;;;;;;;5.55;2.58;;;19.20;46.40;;;;;;6253328;23;20303;-86
2022/03/27 16:49:15;;;;;;;8.82;2.50;;;19.10;46.90;;;;;;6226990;22;20007;-87
2022/03/27 16:51:41;;;;;;;7.57;2.53;;;19.00;47.00;;;;;;6299401;22;20063;-87
2022/03/27 16:54:10;;;;;;;5.50;2.50;;;18.90;46.90;;;;;;6347758;22;20026;-86
2022/03/27 16:56:38;;;;;;;5.28;2.25;;;18.90;47.00;;;;;;6349431;22;20010;-88
2022/03/27 16:59:06;;;;;;;6.13;2.67;;;18.80;47.40;;;;;;6321829;22;19999;-85
2022/03/27 17:01:58;;;;;;;6.20;2.20;;;18.70;47.50;;;;;;6348517;22;20094;-87
2022/03/27 17:04:34;;;;;;;6.00;2.17;;;18.70;48.10;;;;;;6316429;22;20002;-86
2022/03/27 17:07:01;;;;;;;5.03;1.80;;;18.60;47.70;;;;;;6349457;22;20009;-88
2022/03/27 17:09:27;;;;;;;7.13;2.33;;;18.50;48.10;;;;;;6323820;22;20003;-87